Cardak Airport


Codes: LTAY/DNZ
Name: Cardak Airport
City: Denizli
Country: Turkey
Elevation: 2795 ft.
Wikipedia:

Photos at Cardak Airport


   Photos courtesy of SpottingLog. You can add your own sightings and photos by signing up for a free trial today.



No photos found.

Weather at Cardak Airport


Time (UTC)DescriptionTempratureWindCloud coverageVisibilityPressureHumidity
25-Jun-2024 12:00Clear Sky37°C11 mph, NW0%10000m1006hPa17%
25-Jun-2024 15:00Clear Sky36°C7 mph, W3%10000m1006hPa19%
25-Jun-2024 18:00Light Rain29°C9 mph, S28%10000m1008hPa41%
25-Jun-2024 21:00Scattered Clouds25°C2 mph, NE36%10000m1009hPa47%
26-Jun-2024 00:00Few Clouds24°C4 mph, N18%10000m1009hPa49%
26-Jun-2024 03:00Clear Sky22°C2 mph, N0%10000m1010hPa53%
26-Jun-2024 06:00Clear Sky26°C4 mph, N0%10000m1010hPa36%
26-Jun-2024 09:00Clear Sky31°C7 mph, N0%10000m1009hPa25%
26-Jun-2024 12:00Clear Sky35°C9 mph, N0%10000m1007hPa15%
26-Jun-2024 15:00Clear Sky34°C11 mph, N0%10000m1006hPa13%
26-Jun-2024 18:00Clear Sky27°C9 mph, NE0%10000m1008hPa25%
26-Jun-2024 21:00Clear Sky24°C4 mph, NE0%10000m1010hPa31%
27-Jun-2024 00:00Clear Sky22°C4 mph, NE0%10000m1010hPa37%
27-Jun-2024 03:00Clear Sky20°C4 mph, NE0%10000m1010hPa43%
27-Jun-2024 06:00Clear Sky26°C4 mph, N0%10000m1009hPa30%
27-Jun-2024 09:00Clear Sky31°C7 mph, N0%10000m1008hPa20%
27-Jun-2024 12:00Clear Sky35°C11 mph, NW0%10000m1006hPa15%
27-Jun-2024 15:00Clear Sky34°C13 mph, NW0%10000m1005hPa14%
27-Jun-2024 18:00Clear Sky28°C4 mph, NW0%10000m1007hPa20%
27-Jun-2024 21:00Clear Sky25°C2 mph, NW0%10000m1008hPa28%
28-Jun-2024 00:00Clear Sky22°C2 mph, W0%10000m1007hPa34%
28-Jun-2024 03:00Clear Sky21°C0 mph, SE0%10000m1007hPa42%
28-Jun-2024 06:00Clear Sky27°C2 mph, N0%10000m1007hPa27%
28-Jun-2024 09:00Clear Sky32°C4 mph, N0%10000m1005hPa20%
28-Jun-2024 12:00Clear Sky35°C9 mph, N0%10000m1003hPa16%
28-Jun-2024 15:00Scattered Clouds35°C13 mph, N36%10000m1002hPa16%
28-Jun-2024 18:00Broken Clouds29°C4 mph, S67%10000m1004hPa29%
28-Jun-2024 21:00Broken Clouds24°C4 mph, SE61%10000m1006hPa46%
29-Jun-2024 00:00Scattered Clouds22°C4 mph, NE31%10000m1006hPa53%
29-Jun-2024 03:00Light Rain20°C2 mph, N21%10000m1007hPa66%
29-Jun-2024 06:00Light Rain24°C7 mph, N25%10000m1007hPa48%
29-Jun-2024 09:00Clear Sky31°C9 mph, NE0%10000m1006hPa27%
29-Jun-2024 12:00Clear Sky34°C13 mph, NE4%10000m1003hPa20%
29-Jun-2024 15:00Light Rain24°C11 mph, SE42%10000m1007hPa48%
29-Jun-2024 18:00Light Rain22°C7 mph, SE71%10000m1008hPa57%
29-Jun-2024 21:00Broken Clouds22°C2 mph, E69%10000m1008hPa57%
30-Jun-2024 00:00Scattered Clouds21°C2 mph, N35%10000m1008hPa58%
30-Jun-2024 03:00Clear Sky19°C4 mph, NE0%10000m1009hPa55%
30-Jun-2024 06:00Clear Sky25°C7 mph, NE0%10000m1009hPa35%
30-Jun-2024 09:00Clear Sky29°C11 mph, NE0%10000m1008hPa24%